Time;durP1;ratioP1;P1;durP2;ratioP2;P2;SDS_P1;SDS_P2;PMS_P1;PMS_P2;Temp;Humidity;BMP_temperature;BMP_pressure;BME280_temperature;BME280_humidity;BME280_pressure;Samples;Min_cycle;Max_cycle;Signal;HPM_P1;HPM_P2
2021/01/05 00:00:56;;;;;;;52.50;20.00;;;;;;;0.40;90.12;101063.60;1685324;84;21206;-76
2021/01/05 00:03:22;;;;;;;54.83;22.67;;;;;;;0.37;90.12;101066.05;1682021;83;21232;-76
2021/01/05 00:05:48;;;;;;;47.60;18.85;;;;;;;0.37;90.13;101067.73;1665239;84;21231;-76
2021/01/05 00:08:14;;;;;;;49.60;17.32;;;;;;;0.35;90.12;101066.81;1683539;83;21223;-76
2021/01/05 00:10:41;;;;;;;43.30;17.40;;;;;;;0.33;90.13;101065.48;1685359;84;21207;-77
2021/01/05 00:13:07;;;;;;;47.78;18.85;;;;;;;0.31;90.17;101062.90;1686348;83;21216;-77
2021/01/05 00:15:33;;;;;;;48.42;19.42;;;;;;;0.29;90.13;101062.39;1688060;83;21222;-77
2021/01/05 00:17:59;;;;;;;44.88;17.87;;;;;;;0.29;90.19;101061.12;1686245;83;21200;-77
2021/01/05 00:20:29;;;;;;;42.70;18.00;;;;;;;0.20;90.19;101045.16;1683275;83;21223;-76
2021/01/05 00:22:56;;;;;;;52.25;19.60;;;;;;;0.29;90.20;101064.53;1686692;84;21240;-77
2021/01/05 00:25:24;;;;;;;53.00;19.23;;;;;;;0.32;90.22;101065.03;1684719;84;21211;-77
2021/01/05 00:27:51;;;;;;;45.92;17.48;;;;;;;0.30;90.22;101062.84;1687343;83;22335;-77
2021/01/05 00:30:22;;;;;;;44.95;19.12;;;;;;;0.33;90.26;101064.22;1687280;83;21214;-77
2021/01/05 00:32:51;;;;;;;45.95;18.75;;;;;;;0.32;90.20;101057.41;1687877;83;21219;-77
2021/01/05 00:35:27;;;;;;;52.60;19.55;;;;;;;0.33;90.23;101061.67;1664663;84;21223;-77
2021/01/05 00:37:54;;;;;;;50.63;17.75;;;;;;;0.31;90.20;101054.41;1683977;83;21200;-77
2021/01/05 00:40:24;;;;;;;53.55;19.35;;;;;;;0.31;90.21;101057.81;1688099;83;21528;-77
2021/01/05 00:42:51;;;;;;;55.08;18.15;;;;;;;0.31;90.21;101058.22;1687550;83;21236;-77
2021/01/05 00:45:31;;;;;;;55.30;19.37;;;;;;;0.30;90.20;101056.08;1688384;83;21211;-77
2021/01/05 00:47:59;;;;;;;48.08;16.95;;;;;;;0.32;90.23;101057.41;1685316;83;21207;-77
2021/01/05 00:50:26;;;;;;;52.17;18.25;;;;;;;0.32;90.21;101066.30;1683987;83;21436;-77
2021/01/05 00:52:53;;;;;;;64.97;19.25;;;;;;;0.30;90.20;101070.07;1688280;83;22413;-77
2021/01/05 00:55:19;;;;;;;57.17;19.20;;;;;;;0.31;90.22;101066.71;1687456;83;21214;-78
2021/01/05 00:57:46;;;;;;;45.55;15.85;;;;;;;0.32;90.26;101067.58;1685723;83;21276;-77
2021/01/05 01:00:18;;;;;;;;;;;;;;;0.32;90.24;101065.90;1665320;84;21208;-77
2021/01/05 01:02:49;;;;;;;54.90;19.25;;;;;;;0.32;90.25;101062.08;1679678;83;20612;-77
2021/01/05 01:05:17;;;;;;;49.33;19.17;;;;;;;0.31;90.26;101056.95;1662775;83;21140;-77
2021/01/05 01:07:43;;;;;;;44.65;17.87;;;;;;;0.31;90.23;101055.27;1673593;83;21152;-77
2021/01/05 01:10:11;;;;;;;54.05;18.45;;;;;;;0.31;90.23;101059.48;1672757;83;26577;-77
2021/01/05 01:12:37;;;;;;;47.93;17.35;;;;;;;0.30;90.24;101058.62;1669508;83;21138;-77
2021/01/05 01:15:07;;;;;;;52.08;17.82;;;;;;;0.30;90.24;101050.99;1669757;83;21221;-77
2021/01/05 01:17:33;;;;;;;56.13;17.82;;;;;;;0.30;90.29;101053.53;1675590;83;21984;-77
2021/01/05 01:19:59;;;;;;;53.73;17.12;;;;;;;0.32;90.30;101057.41;1687561;83;21438;-77
2021/01/05 01:22:26;;;;;;;51.42;16.35;;;;;;;0.33;90.29;101054.05;1682700;83;21644;-77
2021/01/05 01:24:53;;;;;;;47.15;16.95;;;;;;;0.33;90.28;101057.45;1675999;83;22305;-76
2021/01/05 01:27:20;;;;;;;50.10;17.95;;;;;;;0.33;90.27;101055.31;1674879;83;21090;-76
2021/01/05 01:29:47;;;;;;;36.93;15.80;;;;;;;0.33;90.28;101058.73;1672269;83;21590;-76
2021/01/05 01:32:13;;;;;;;38.02;16.87;;;;;;;0.34;90.28;101057.05;1673329;83;21238;-76
2021/01/05 01:34:40;;;;;;;42.03;16.45;;;;;;;0.35;90.26;101059.18;1669352;83;21209;-77
2021/01/05 01:37:11;;;;;;;49.15;19.12;;;;;;;0.33;90.24;101054.05;1673478;83;21219;-77
2021/01/05 01:39:40;;;;;;;39.98;15.78;;;;;;;0.31;90.23;101050.59;1672464;83;21129;-77
2021/01/05 01:42:09;;;;;;;37.73;14.65;;;;;;;0.30;90.23;101050.99;1668599;83;22217;-77
2021/01/05 01:44:39;;;;;;;36.40;14.90;;;;;;;0.31;90.27;101051.86;1671388;83;21156;-77
2021/01/05 01:47:25;;;;;;;38.08;16.25;;;;;;;0.30;90.24;101051.40;1674335;83;21187;-77
2021/01/05 01:49:59;;;;;;;43.68;15.95;;;;;;;0.29;90.22;101046.72;1671754;83;21114;-77
2021/01/05 01:52:45;;;;;;;38.00;15.83;;;;;;;0.28;90.25;101058.12;1674825;83;21166;-77
2021/01/05 01:55:19;;;;;;;38.95;15.50;;;;;;;0.27;90.24;101051.30;1661336;84;21245;-77
2021/01/05 01:58:15;;;;;;;37.03;16.77;;;;;;;0.26;90.27;101047.89;1666600;83;21148;-77
2021/01/05 02:01:11;;;;;;;37.83;16.65;;;;;;;0.29;90.32;101045.45;1675602;83;21130;-77
2021/01/05 02:04:00;;;;;;;42.70;15.90;;;;;;;0.31;90.32;101042.95;1669346;83;21208;-77
2021/01/05 02:07:10;;;;;;;33.55;15.15;;;;;;;0.31;90.29;101034.05;1664746;83;21258;-77
2021/01/05 02:10:18;;;;;;;41.35;14.78;;;;;;;0.30;90.29;101034.47;1670860;83;21531;-77
2021/01/05 02:13:22;;;;;;;37.95;16.27;;;;;;;0.26;90.25;101028.82;1663811;83;21201;-77
2021/01/05 02:16:11;;;;;;;32.93;13.48;;;;;;;0.27;90.29;101029.69;1662986;83;21785;-77
2021/01/05 02:18:52;;;;;;;40.30;16.73;;;;;;;0.25;90.29;101023.28;1663748;83;21226;-76
2021/01/05 02:21:26;;;;;;;39.73;14.28;;;;;;;0.26;90.33;101016.11;1677259;83;21220;-77
2021/01/05 02:24:17;;;;;;;45.75;16.60;;;;;;;0.29;90.36;101022.97;1666911;83;21261;-77
2021/01/05 02:26:58;;;;;;;36.70;14.18;;;;;;;0.29;90.38;101016.61;1667733;83;21248;-77
2021/01/05 02:29:35;;;;;;;45.67;18.27;;;;;;;0.28;90.33;101018.29;1667503;83;22273;-76
2021/01/05 02:32:12;;;;;;;36.65;16.50;;;;;;;0.27;90.31;101017.83;1658911;83;21197;-77
2021/01/05 02:34:53;;;;;;;42.38;15.38;;;;;;;0.28;90.30;101018.70;1672095;83;21185;-77
2021/01/05 02:37:33;;;;;;;35.10;14.65;;;;;;;0.26;90.30;101019.92;1667084;83;21234;-77
2021/01/05 02:40:20;;;;;;;42.65;17.37;;;;;;;0.27;90.31;101015.29;1579874;89;21426;-77
2021/01/05 02:43:14;;;;;;;38.40;15.43;;;;;;;0.27;90.33;101017.83;1580561;89;21289;-77
2021/01/05 02:46:08;;;;;;;44.83;17.37;;;;;;;0.28;90.33;101015.75;1581757;89;21198;-76
2021/01/05 02:49:08;;;;;;;38.83;15.88;;;;;;;0.29;90.35;101010.25;1574397;89;21255;-76
2021/01/05 02:52:05;;;;;;;34.23;15.05;;;;;;;0.30;90.34;101010.71;1581255;89;21237;-76
2021/01/05 02:55:15;;;;;;;36.38;15.75;;;;;;;0.29;90.31;101003.48;1580726;89;21271;-76
2021/01/05 02:58:11;;;;;;;43.48;17.73;;;;;;;0.28;90.28;100997.95;1584420;89;21250;-76
2021/01/05 03:01:00;;;;;;;33.78;15.50;;;;;;;0.29;90.29;101000.08;1569919;89;21301;-76
2021/01/05 03:03:46;;;;;;;34.85;15.68;;;;;;;0.31;90.36;100998.05;1576951;89;21270;-77
2021/01/05 03:06:30;;;;;;;41.75;15.63;;;;;;;0.32;90.36;100995.09;1577807;90;21698;-77
2021/01/05 03:09:47;;;;;;;34.48;15.93;;;;;;;0.32;90.32;100990.00;1580949;89;21307;-76
2021/01/05 03:12:36;;;;;;;34.35;14.80;;;;;;;0.28;90.27;100989.45;1582146;89;21290;-77
2021/01/05 03:15:37;;;;;;;41.45;17.62;;;;;;;0.27;90.28;100992.41;1600462;88;21252;-77
2021/01/05 03:18:42;;;;;;;38.40;16.17;;;;;;;0.29;90.34;100987.36;1607507;85;21299;-77
2021/01/05 03:21:25;;;;;;;38.47;19.03;;;;;;;0.30;90.34;100989.09;1646515;85;22212;-77
2021/01/05 03:23:53;;;;;;;34.55;16.52;;;;;;;0.28;90.29;100987.77;1657400;85;21501;-77
2021/01/05 03:26:25;;;;;;;32.55;15.72;;;;;;;0.27;90.28;100987.31;1651899;85;21261;-77
2021/01/05 03:28:52;;;;;;;31.85;16.02;;;;;;;0.28;90.33;100986.91;1666048;85;21305;-77
2021/01/05 03:31:35;;;;;;;39.75;17.75;;;;;;;0.27;90.29;100986.05;1663101;85;21690;-77
2021/01/05 03:34:03;;;;;;;35.10;16.48;;;;;;;0.26;90.28;100980.91;1666470;85;21301;-78
2021/01/05 03:36:30;;;;;;;27.17;13.38;;;;;;;0.26;90.30;100987.27;1661130;85;21260;-78
2021/01/05 03:38:56;;;;;;;27.95;14.47;;;;;;;0.26;90.30;100983.05;1661118;85;25375;-78
2021/01/05 03:41:23;;;;;;;32.17;16.07;;;;;;;0.25;90.29;100980.05;1659112;85;21381;-78
2021/01/05 03:43:49;;;;;;;34.48;17.42;;;;;;;0.24;90.28;100971.95;1644784;85;21261;-78
2021/01/05 03:46:15;;;;;;;30.82;15.18;;;;;;;0.25;90.30;100972.41;1649845;85;21315;-77
2021/01/05 03:48:41;;;;;;;37.50;18.23;;;;;;;0.26;90.32;100974.14;1644959;85;21274;-77
2021/01/05 03:51:08;;;;;;;35.70;14.98;;;;;;;0.26;90.30;100972.01;1662925;85;21240;-77
2021/01/05 03:53:34;;;;;;;42.00;18.62;;;;;;;0.26;90.30;100969.47;1620742;86;21248;-77
2021/01/05 03:56:00;;;;;;;37.48;16.60;;;;;;;0.27;90.31;100971.19;1659464;84;21206;-77
2021/01/05 03:58:27;;;;;;;44.73;16.93;;;;;;;0.26;90.30;100969.05;1677196;84;21882;-77
2021/01/05 04:00:53;;;;;;;33.53;16.23;;;;;;;0.27;90.31;100966.97;1675378;84;21490;-77
2021/01/05 04:03:20;;;;;;;36.17;17.15;;;;;;;0.29;90.36;100967.02;1670345;84;21256;-77
2021/01/05 04:05:46;;;;;;;32.48;15.45;;;;;;;0.28;90.31;100966.16;1628734;84;21221;-77
2021/01/05 04:08:13;;;;;;;37.42;16.73;;;;;;;0.28;90.33;100958.53;1678763;84;21204;-78
2021/01/05 04:10:39;;;;;;;41.37;17.25;;;;;;;0.30;90.31;100970.02;1672007;84;21226;-77
2021/01/05 04:13:05;;;;;;;30.02;15.55;;;;;;;0.29;90.29;100964.48;1672716;84;21209;-78
2021/01/05 04:15:31;;;;;;;25.65;12.03;;;;;;;0.30;90.33;100968.75;1666523;84;21185;-77
2021/01/05 04:17:59;;;;;;;26.05;13.38;;;;;;;0.31;90.35;100966.25;1675074;84;21759;-78
2021/01/05 04:20:28;;;;;;;34.63;16.45;;;;;;;0.30;90.32;100965.80;1663768;84;21217;-77
2021/01/05 04:22:56;;;;;;;32.53;16.10;;;;;;;0.30;90.33;100976.37;1666759;84;21573;-78
2021/01/05 04:25:22;;;;;;;31.68;15.00;;;;;;;0.31;90.33;100980.64;1673213;84;21118;-77
2021/01/05 04:27:50;;;;;;;31.02;15.35;;;;;;;0.31;90.31;100976.83;1670522;84;21636;-77
2021/01/05 04:30:25;;;;;;;33.13;15.68;;;;;;;0.30;90.34;100972.16;1665232;84;21121;-77
2021/01/05 04:32:53;;;;;;;31.02;14.80;;;;;;;0.29;90.31;100965.34;1654857;84;21545;-77
2021/01/05 04:35:21;;;;;;;35.08;14.85;;;;;;;0.28;90.33;100972.52;1667897;84;21188;-77
2021/01/05 04:37:48;;;;;;;35.48;15.38;;;;;;;0.27;90.31;100975.01;1664508;84;21233;-77
2021/01/05 04:40:23;;;;;;;;;;;;;;;0.28;90.38;100975.46;1658309;84;21233;-78
2021/01/05 04:42:55;;;;;;;29.05;14.87;;;;;;;0.28;90.40;100980.14;1663319;84;20315;-78
2021/01/05 04:45:23;;;;;;;31.75;14.75;;;;;;;0.30;90.40;100978.51;1672085;84;21194;-77
2021/01/05 04:48:13;;;;;;;38.55;16.12;;;;;;;0.30;90.39;100976.37;1650184;85;21203;-78
2021/01/05 04:50:47;;;;;;;34.63;15.93;;;;;;;0.30;90.39;100968.34;1661921;85;22196;-77
2021/01/05 04:53:19;;;;;;;26.45;13.68;;;;;;;0.32;90.43;100972.20;1687765;83;21208;-78
2021/01/05 04:55:59;;;;;;;32.85;14.80;;;;;;;0.32;90.38;100967.11;1687963;83;21214;-77
2021/01/05 04:58:39;;;;;;;28.25;14.40;;;;;;;0.30;90.36;100973.42;1685506;83;21224;-78
2021/01/05 05:01:20;;;;;;;28.87;12.88;;;;;;;0.31;90.38;100973.02;1677679;83;21398;-78
2021/01/05 05:04:23;;;;;;;31.90;14.10;;;;;;;0.31;90.39;100967.52;1674803;83;21215;-77
2021/01/05 05:07:01;;;;;;;31.52;14.78;;;;;;;0.30;90.37;100968.34;1691927;83;21246;-78
2021/01/05 05:09:35;;;;;;;28.70;15.25;;;;;;;0.32;90.44;100965.84;1678345;83;21234;-77
2021/01/05 05:12:13;;;;;;;25.02;13.08;;;;;;;0.32;90.43;100964.16;1692254;83;21182;-77
2021/01/05 05:14:51;;;;;;;25.72;12.23;;;;;;;0.32;90.41;100959.48;1675452;83;23073;-77
2021/01/05 05:17:52;;;;;;;27.48;13.22;;;;;;;0.33;90.43;100963.75;1688616;83;22220;-77
2021/01/05 05:21:06;;;;;;;31.57;13.53;;;;;;;0.32;90.40;100961.62;1644366;86;21288;-77
2021/01/05 05:24:05;;;;;;;31.75;14.30;;;;;;;0.33;90.42;100968.84;1690697;83;21210;-77
2021/01/05 05:26:59;;;;;;;31.90;14.95;;;;;;;0.31;90.41;100966.66;1682915;84;21214;-77
2021/01/05 05:29:48;;;;;;;24.82;12.03;;;;;;;0.31;90.42;100967.52;1683047;84;21603;-77
2021/01/05 05:32:32;;;;;;;36.38;15.50;;;;;;;0.31;90.45;100964.11;1682274;83;21267;-77
2021/01/05 05:35:07;;;;;;;29.30;12.85;;;;;;;0.32;90.43;100970.93;1684982;84;21277;-77
2021/01/05 05:38:07;;;;;;;38.83;16.17;;;;;;;0.32;90.46;100967.98;1688275;83;21191;-77
2021/01/05 05:40:41;;;;;;;32.75;14.45;;;;;;;0.35;90.45;100965.08;1682007;84;21400;-76
2021/01/05 05:43:22;;;;;;;27.40;13.38;;;;;;;0.36;90.44;100970.20;1683854;83;22025;-78
2021/01/05 05:46:12;;;;;;;30.08;13.62;;;;;;;0.32;90.37;100956.53;1685150;84;21273;-77
2021/01/05 05:48:50;;;;;;;26.45;13.15;;;;;;;0.31;90.42;100959.89;1684269;84;22079;-77
2021/01/05 05:51:31;;;;;;;31.68;14.98;;;;;;;0.32;90.41;100958.21;1683615;84;21258;-77
2021/01/05 05:54:11;;;;;;;32.83;14.78;;;;;;;0.32;90.43;100959.48;1682494;83;21258;-76
2021/01/05 05:57:01;;;;;;;31.20;13.90;;;;;;;0.31;90.43;100958.62;1677508;83;21913;-77
2021/01/05 05:59:38;;;;;;;32.50;15.43;;;;;;;0.32;90.45;100956.53;1681335;84;21556;-77
2021/01/05 06:02:05;;;;;;;27.70;13.35;;;;;;;0.33;90.49;100954.45;1680651;84;21215;-77
2021/01/05 06:04:33;;;;;;;27.80;14.20;;;;;;;0.33;90.46;100944.67;1683871;84;21230;-77
2021/01/05 06:07:01;;;;;;;26.87;13.22;;;;;;;0.33;90.45;100940.86;1682771;83;21750;-76
2021/01/05 06:09:27;;;;;;;33.53;13.08;;;;;;;0.33;90.46;100939.19;1680894;84;21679;-75
2021/01/05 06:11:55;;;;;;;26.33;13.45;;;;;;;0.36;90.47;100938.41;1686506;83;21241;-75
2021/01/05 06:14:22;;;;;;;27.80;13.83;;;;;;;0.38;90.52;100936.78;1686596;83;21549;-75
2021/01/05 06:16:48;;;;;;;30.08;12.80;;;;;;;0.38;90.44;100932.10;1683439;83;21462;-75
2021/01/05 06:19:14;;;;;;;27.90;12.78;;;;;;;0.38;90.43;100933.38;1688179;83;21142;-75
2021/01/05 06:21:40;;;;;;;28.42;13.13;;;;;;;0.36;90.42;100939.69;1694230;83;21231;-75
2021/01/05 06:24:07;;;;;;;32.98;14.15;;;;;;;0.37;90.46;100936.33;1684977;84;21155;-75
2021/01/05 06:26:34;;;;;;;25.48;13.43;;;;;;;0.39;90.50;100938.51;1686923;84;21272;-75
2021/01/05 06:29:01;;;;;;;25.92;12.15;;;;;;;0.41;90.49;100931.78;1688089;84;21916;-75
2021/01/05 06:31:28;;;;;;;25.37;13.22;;;;;;;0.43;90.46;100933.10;1686850;83;21194;-75
2021/01/05 06:33:54;;;;;;;25.77;12.88;;;;;;;0.42;90.44;100936.47;1685390;83;21733;-75
2021/01/05 06:36:20;;;;;;;25.43;11.78;;;;;;;0.41;90.43;100930.52;1685890;84;21209;-75
2021/01/05 06:38:47;;;;;;;22.42;11.88;;;;;;;0.41;90.45;100927.97;1685289;83;21246;-75
2021/01/05 06:41:13;;;;;;;25.35;11.93;;;;;;;0.42;90.45;100928.42;1686281;84;21188;-75
2021/01/05 06:43:40;;;;;;;21.35;12.28;;;;;;;0.43;90.46;100929.29;1685760;83;21686;-77
2021/01/05 06:46:11;;;;;;;23.77;13.50;;;;;;;0.44;90.46;100931.87;1684495;84;21220;-76
2021/01/05 06:48:38;;;;;;;23.27;12.23;;;;;;;0.43;90.46;100930.16;1682770;84;22191;-77
2021/01/05 06:51:07;;;;;;;15.75;9.18;;;;;;;0.45;90.49;100925.11;1686056;84;21511;-76
2021/01/05 06:53:34;;;;;;;24.82;13.35;;;;;;;0.47;90.47;100927.30;1686792;83;21208;-76
2021/01/05 06:56:00;;;;;;;22.75;13.48;;;;;;;0.44;90.44;100924.25;1687335;83;21703;-76
2021/01/05 06:58:26;;;;;;;19.73;11.53;;;;;;;0.43;90.45;100919.98;1685451;83;21232;-77
2021/01/05 07:00:52;;;;;;;21.87;12.35;;;;;;;0.44;90.47;100923.38;1689910;83;21221;-76
2021/01/05 07:03:18;;;;;;;37.85;19.23;;;;;;;0.45;90.49;100925.11;1703096;83;21215;-77
2021/01/05 07:05:45;;;;;;;29.40;14.85;;;;;;;0.47;90.51;100928.56;1683960;83;21192;-76
2021/01/05 07:08:11;;;;;;;24.82;15.28;;;;;;;0.48;90.49;100925.20;1688143;83;21499;-76
2021/01/05 07:10:38;;;;;;;23.25;13.22;;;;;;;0.49;90.50;100926.52;1691371;83;22253;-76
2021/01/05 07:13:04;;;;;;;23.25;14.73;;;;;;;0.52;90.53;100922.77;1687613;83;22328;-76
2021/01/05 07:15:30;;;;;;;28.10;15.98;;;;;;;0.53;90.52;100919.40;1680258;83;21215;-76
2021/01/05 07:17:56;;;;;;;29.10;15.50;;;;;;;0.53;90.47;100924.89;1683648;83;21206;-76
2021/01/05 07:20:23;;;;;;;21.23;12.78;;;;;;;0.54;90.50;100925.35;1689631;83;21198;-76
2021/01/05 07:22:49;;;;;;;31.52;16.45;;;;;;;0.53;90.45;100923.22;1691842;83;21201;-76
2021/01/05 07:25:16;;;;;;;32.90;16.87;;;;;;;0.51;90.42;100921.07;1699163;83;21278;-76
2021/01/05 07:27:42;;;;;;;;;;;;;;;0.50;90.44;100916.80;1690420;83;21208;-76
2021/01/05 07:30:10;;;;;;;33.85;19.35;;;;;;;0.52;90.49;100916.84;1687787;83;20285;-76
2021/01/05 07:32:36;;;;;;;29.00;16.57;;;;;;;0.54;90.53;100908.81;1667277;83;21209;-76
2021/01/05 07:35:04;;;;;;;24.67;14.15;;;;;;;0.56;90.53;100918.22;1684277;83;21204;-76
2021/01/05 07:37:35;;;;;;;22.73;13.08;;;;;;;0.57;90.54;100913.58;1685564;83;21220;-74
2021/01/05 07:40:02;;;;;;;28.05;14.18;;;;;;;0.58;90.49;100910.63;1686824;83;21136;-76
2021/01/05 07:42:31;;;;;;;25.65;13.08;;;;;;;0.58;90.54;100916.58;1684300;83;21256;-76
2021/01/05 07:45:03;;;;;;;26.50;12.93;;;;;;;0.59;90.50;100922.13;1690456;83;21122;-76
2021/01/05 07:47:36;;;;;;;25.25;13.68;;;;;;;0.59;90.46;100926.35;1686397;83;21712;-76
2021/01/05 07:50:06;;;;;;;24.50;14.35;;;;;;;0.60;90.50;100925.53;1680863;83;21213;-76
2021/01/05 07:52:39;;;;;;;20.10;12.65;;;;;;;0.63;90.54;100925.63;1664517;84;22173;-76
2021/01/05 07:55:22;;;;;;;22.80;13.72;;;;;;;0.64;90.53;100917.17;1679507;83;21231;-76
2021/01/05 07:57:50;;;;;;;24.75;11.50;;;;;;;0.65;90.52;100922.30;1687675;83;21129;-76
2021/01/05 08:00:20;;;;;;;27.17;15.30;;;;;;;0.65;90.49;100921.03;1685110;83;21163;-76
2021/01/05 08:02:47;;;;;;;25.60;13.45;;;;;;;0.64;90.49;100914.22;1681190;83;21801;-77
2021/01/05 08:05:17;;;;;;;21.25;11.80;;;;;;;0.65;90.51;100918.89;1685882;83;21148;-77
2021/01/05 08:07:44;;;;;;;26.65;13.55;;;;;;;0.66;90.48;100918.94;1685223;84;21434;-76
2021/01/05 08:10:18;;;;;;;25.35;12.47;;;;;;;0.67;90.49;100918.53;1685973;83;21559;-76
2021/01/05 08:12:46;;;;;;;20.88;11.55;;;;;;;0.65;90.48;100907.03;1685727;83;21222;-76
2021/01/05 08:15:20;;;;;;;24.85;13.88;;;;;;;0.66;90.49;100905.36;1678459;83;21591;-75
2021/01/05 08:17:46;;;;;;;21.48;11.55;;;;;;;0.67;90.48;100905.80;1685684;84;21151;-76
2021/01/05 08:20:18;;;;;;;24.85;13.20;;;;;;;0.69;90.50;100902.03;1685190;83;21147;-76
2021/01/05 08:22:45;;;;;;;25.43;13.70;;;;;;;0.69;90.50;100896.95;1684533;84;21222;-76
2021/01/05 08:25:12;;;;;;;21.73;12.80;;;;;;;0.71;90.54;100894.03;1664793;84;22009;-76
2021/01/05 08:27:40;;;;;;;21.65;13.05;;;;;;;0.74;90.53;100900.48;1667293;84;21143;-78
2021/01/05 08:30:07;;;;;;;34.65;17.48;;;;;;;0.74;90.52;100894.12;1686070;84;21142;-76
2021/01/05 08:32:34;;;;;;;30.85;15.65;;;;;;;0.75;90.53;100890.75;1689289;83;21140;-77
2021/01/05 08:35:00;;;;;;;37.35;20.25;;;;;;;0.76;90.51;100884.44;1684973;84;21538;-77
2021/01/05 08:37:26;;;;;;;28.73;14.75;;;;;;;0.75;90.50;100881.84;1668704;84;21244;-77
2021/01/05 08:39:52;;;;;;;42.03;21.10;;;;;;;0.77;90.52;100891.66;1686814;83;21154;-77
2021/01/05 08:42:19;;;;;;;37.88;20.00;;;;;;;0.78;90.55;100884.06;1669333;83;21214;-77
2021/01/05 08:44:45;;;;;;;38.58;19.23;;;;;;;0.81;90.55;100887.11;1682175;83;21250;-77
2021/01/05 08:47:11;;;;;;;33.67;17.42;;;;;;;0.83;90.54;100894.37;1684515;84;21433;-77
2021/01/05 08:49:38;;;;;;;28.85;15.25;;;;;;;0.83;90.54;100887.60;1682240;84;21666;-77
2021/01/05 08:52:04;;;;;;;28.87;15.48;;;;;;;0.83;90.54;100877.84;1684452;83;21222;-76
2021/01/05 08:54:31;;;;;;;25.85;16.25;;;;;;;0.86;90.56;100884.28;1655364;84;21214;-76
2021/01/05 08:57:04;;;;;;;25.60;14.53;;;;;;;0.86;90.54;100878.78;1657502;85;21231;-76
2021/01/05 08:59:27;;;;;;;34.27;16.87;;;;;;;0.86;90.50;100870.28;1676500;84;21012;-78
2021/01/05 09:01:53;;;;;;;33.50;17.42;;;;;;;0.87;90.51;100875.41;1699616;83;21931;-77
2021/01/05 09:04:19;;;;;;;31.60;18.55;;;;;;;0.89;90.54;100875.05;1689638;84;21147;-77
2021/01/05 09:06:49;;;;;;;31.68;19.20;;;;;;;0.90;90.52;100877.18;1689369;83;21233;-77
2021/01/05 09:09:17;;;;;;;29.25;14.23;;;;;;;0.89;90.53;100878.00;1687301;83;21243;-76
2021/01/05 09:11:44;;;;;;;27.13;15.25;;;;;;;0.93;90.55;100884.91;1685246;84;21222;-77
2021/01/05 09:14:11;;;;;;;28.98;15.93;;;;;;;0.93;90.54;100864.13;1666611;84;21247;-77
2021/01/05 09:16:37;;;;;;;41.08;18.70;;;;;;;0.95;90.54;100873.08;1681430;84;21250;-77
2021/01/05 09:19:03;;;;;;;39.27;17.87;;;;;;;0.96;90.54;100870.98;1680723;84;21206;-77
2021/01/05 09:21:30;;;;;;;29.32;13.90;;;;;;;0.97;90.54;100868.89;1686846;83;21202;-77
2021/01/05 09:23:59;;;;;;;26.57;14.78;;;;;;;0.99;90.55;100877.02;1684385;84;21204;-76
2021/01/05 09:26:32;;;;;;;29.50;16.52;;;;;;;1.00;90.53;100868.97;1684814;83;21207;-76
2021/01/05 09:28:59;;;;;;;29.65;15.78;;;;;;;1.01;90.49;100866.88;1686538;84;21234;-77
2021/01/05 09:31:26;;;;;;;28.87;15.50;;;;;;;1.01;90.49;100870.70;1667071;84;21231;-77
2021/01/05 09:33:52;;;;;;;31.25;16.87;;;;;;;1.03;90.52;100861.83;1693001;83;21657;-76
2021/01/05 09:36:19;;;;;;;30.65;16.23;;;;;;;1.03;90.51;100862.69;1688175;84;21233;-76
2021/01/05 09:38:46;;;;;;;28.75;17.12;;;;;;;1.05;90.51;100858.88;1693742;82;21789;-76
2021/01/05 09:41:26;;;;;;;34.65;15.88;;;;;;;1.05;90.54;100853.38;1688892;83;21225;-75
2021/01/05 09:43:52;;;;;;;29.23;16.93;;;;;;;1.10;90.53;100853.49;1674205;83;21234;-76
2021/01/05 09:46:21;;;;;;;32.17;18.67;;;;;;;1.11;90.53;100853.53;1696952;83;21560;-76
2021/01/05 09:48:48;;;;;;;30.45;15.38;;;;;;;1.13;90.51;100848.48;1689547;83;21210;-75
2021/01/05 09:51:29;;;;;;;29.30;17.40;;;;;;;1.15;90.54;100847.70;1645992;84;21258;-75
2021/01/05 09:53:56;;;;;;;30.68;16.17;;;;;;;1.18;90.54;100840.55;1690080;83;21233;-76
2021/01/05 09:56:24;;;;;;;23.47;14.75;;;;;;;1.20;90.54;100851.64;1688538;84;21198;-76
2021/01/05 09:58:50;;;;;;;25.23;14.95;;;;;;;1.19;90.51;100846.09;1684636;83;21193;-76
2021/01/05 10:01:29;;;;;;;28.30;16.82;;;;;;;1.21;90.55;100845.31;1680010;84;21251;-75
2021/01/05 10:03:55;;;;;;;31.48;18.27;;;;;;;1.23;90.55;100840.25;1680186;83;21360;-75
2021/01/05 10:06:29;;;;;;;27.32;17.12;;;;;;;1.25;90.53;100834.78;1680390;84;21204;-75
2021/01/05 10:08:56;;;;;;;23.42;14.15;;;;;;;1.23;90.47;100830.92;1678232;84;21255;-76
2021/01/05 10:11:22;;;;;;;27.42;14.18;;;;;;;1.23;90.48;100829.66;1680553;83;21214;-77
2021/01/05 10:13:49;;;;;;;28.80;17.10;;;;;;;1.23;90.48;100824.97;1684584;83;21971;-76
2021/01/05 10:16:15;;;;;;;24.50;14.38;;;;;;;1.24;90.52;100826.28;1681685;83;21244;-75
2021/01/05 10:18:41;;;;;;;31.82;16.17;;;;;;;1.24;90.49;100823.73;1701287;82;22282;-75
2021/01/05 10:21:07;;;;;;;29.72;16.73;;;;;;;1.23;90.48;100813.10;1690462;84;21609;-76
2021/01/05 10:23:33;;;;;;;30.43;16.23;;;;;;;1.21;90.46;100812.20;1685464;84;21636;-76
2021/01/05 10:26:00;;;;;;;31.00;16.87;;;;;;;1.22;90.49;100807.56;1683665;84;21199;-76
2021/01/05 10:28:26;;;;;;;28.92;15.70;;;;;;;1.24;90.49;100805.91;1687239;84;21257;-77
2021/01/05 10:30:52;;;;;;;30.57;18.10;;;;;;;1.27;90.53;100801.30;1685541;84;21668;-77
2021/01/05 10:33:19;;;;;;;36.70;19.30;;;;;;;1.27;90.50;100794.52;1683760;84;21193;-77
2021/01/05 10:35:45;;;;;;;31.62;17.90;;;;;;;1.26;90.48;100792.80;1686229;84;21223;-77
2021/01/05 10:38:11;;;;;;;33.53;17.90;;;;;;;1.28;90.51;100786.47;1681406;84;21236;-76
2021/01/05 10:40:37;;;;;;;30.52;17.27;;;;;;;1.30;90.53;100786.09;1681200;83;21249;-77
2021/01/05 10:43:04;;;;;;;31.57;19.15;;;;;;;1.30;90.51;100788.23;1682411;84;21221;-77
2021/01/05 10:45:30;;;;;;;30.17;16.77;;;;;;;1.30;90.51;100781.00;1681893;83;21205;-78
2021/01/05 10:47:58;;;;;;;29.80;16.12;;;;;;;1.33;90.55;100775.98;1656956;84;39474;-78
2021/01/05 10:50:27;;;;;;;21.95;12.60;;;;;;;1.36;90.55;100777.73;1660355;84;21235;-78
2021/01/05 10:52:54;;;;;;;27.42;14.95;;;;;;;1.38;90.57;100779.50;1674577;83;21524;-77
2021/01/05 10:55:21;;;;;;;31.20;17.77;;;;;;;1.40;90.55;100768.06;1672768;83;25335;-78
2021/01/05 10:57:49;;;;;;;27.20;14.35;;;;;;;1.43;90.54;100775.78;1668481;83;21125;-77
2021/01/05 11:00:18;;;;;;;21.65;13.43;;;;;;;1.42;90.51;100763.88;1676489;83;21554;-78
2021/01/05 11:02:45;;;;;;;23.60;13.95;;;;;;;1.44;90.47;100765.63;1677574;83;21127;-78
2021/01/05 11:05:15;;;;;;;24.80;14.53;;;;;;;1.43;90.49;100759.22;1676379;83;21193;-78
2021/01/05 11:07:50;;;;;;;27.32;18.07;;;;;;;1.44;90.49;100755.44;1678062;83;21137;-78
2021/01/05 11:10:16;;;;;;;28.55;17.32;;;;;;;1.46;90.55;100748.69;1670194;83;21157;-76
2021/01/05 11:12:43;;;;;;;24.15;14.78;;;;;;;1.50;90.51;100750.48;1674448;83;21130;-76
2021/01/05 11:15:13;;;;;;;24.07;15.23;;;;;;;1.48;90.49;100744.49;1676705;83;21192;-76
2021/01/05 11:17:39;;;;;;;19.60;12.05;;;;;;;1.50;90.50;100740.29;1674552;83;22069;-76
2021/01/05 11:20:07;;;;;;;29.77;17.15;;;;;;;1.50;90.50;100738.16;1683835;83;21757;-76
2021/01/05 11:22:35;;;;;;;24.47;15.63;;;;;;;1.51;90.48;100736.92;1673909;83;21441;-79
2021/01/05 11:25:02;;;;;;;26.80;16.48;;;;;;;1.53;90.46;100733.13;1689466;83;21113;-77
2021/01/05 11:27:28;;;;;;;23.95;14.60;;;;;;;1.53;90.48;100735.27;1685812;83;21557;-77
2021/01/05 11:29:54;;;;;;;27.32;16.48;;;;;;;1.55;90.50;100728.52;1689259;83;21536;-76
2021/01/05 11:32:21;;;;;;;29.92;16.95;;;;;;;1.54;90.45;100721.70;1663917;84;22127;-77
2021/01/05 11:34:47;;;;;;;38.88;20.15;;;;;;;1.56;90.48;100714.09;1686285;83;21162;-75
2021/01/05 11:37:18;;;;;;;66.35;33.55;;;;;;;1.57;90.47;100710.27;1687416;83;21139;-75
2021/01/05 11:39:46;;;;;;;43.73;25.10;;;;;;;1.57;90.47;100706.44;1691664;83;21137;-76